sensor_id;sensor_type;location;lat;lon;timestamp;pressure;altitude;pressure_sealevel;temperature;humidity
45813;BME280;31519;45.408;10.962;2023-02-12T00:01:26;102361.91;;;5.81;52.72
45813;BME280;31519;45.408;10.962;2023-02-12T00:03:56;102358.03;;;5.54;52.96
45813;BME280;31519;45.408;10.962;2023-02-12T00:06:25;102354.34;;;5.85;52.33
45813;BME280;31519;45.408;10.962;2023-02-12T00:08:55;102362.78;;;5.63;52.76
45813;BME280;31519;45.408;10.962;2023-02-12T00:11:26;102348.09;;;5.79;52.70
45813;BME280;31519;45.408;10.962;2023-02-12T00:13:55;102351.41;;;5.63;52.67
45813;BME280;31519;45.408;10.962;2023-02-12T00:16:27;102348.22;;;5.84;52.48
45813;BME280;31519;45.408;10.962;2023-02-12T00:18:56;102346.88;;;5.82;52.93
45813;BME280;31519;45.408;10.962;2023-02-12T00:21:27;102355.41;;;5.54;53.04
45813;BME280;31519;45.408;10.962;2023-02-12T00:23:56;102354.00;;;5.51;53.36
45813;BME280;31519;45.408;10.962;2023-02-12T00:26:24;102355.34;;;5.42;53.28
45813;BME280;31519;45.408;10.962;2023-02-12T00:28:52;102360.41;;;5.44;53.45
45813;BME280;31519;45.408;10.962;2023-02-12T00:31:23;102360.88;;;5.41;53.74
45813;BME280;31519;45.408;10.962;2023-02-12T00:33:55;102349.63;;;5.45;54.26
45813;BME280;31519;45.408;10.962;2023-02-12T00:36:27;102347.28;;;5.37;54.39
45813;BME280;31519;45.408;10.962;2023-02-12T00:38:56;102352.38;;;5.20;54.38
45813;BME280;31519;45.408;10.962;2023-02-12T00:41:24;102355.09;;;5.14;55.09
45813;BME280;31519;45.408;10.962;2023-02-12T00:43:53;102351.75;;;5.07;55.23
45813;BME280;31519;45.408;10.962;2023-02-12T00:46:21;102355.50;;;4.99;56.13
45813;BME280;31519;45.408;10.962;2023-02-12T00:48:49;102346.97;;;5.15;55.67
45813;BME280;31519;45.408;10.962;2023-02-12T00:51:19;102349.28;;;5.23;55.77
45813;BME280;31519;45.408;10.962;2023-02-12T00:53:48;102356.19;;;5.24;55.77
45813;BME280;31519;45.408;10.962;2023-02-12T00:56:16;102354.03;;;5.03;56.22
45813;BME280;31519;45.408;10.962;2023-02-12T00:58:44;102350.44;;;4.98;56.91
45813;BME280;31519;45.408;10.962;2023-02-12T01:01:12;102350.88;;;4.76;57.16
45813;BME280;31519;45.408;10.962;2023-02-12T01:03:40;102348.50;;;4.86;56.57
45813;BME280;31519;45.408;10.962;2023-02-12T01:06:08;102354.69;;;4.80;57.56
45813;BME280;31519;45.408;10.962;2023-02-12T01:08:37;102356.53;;;4.80;57.52
45813;BME280;31519;45.408;10.962;2023-02-12T01:11:05;102365.00;;;4.82;57.77
45813;BME280;31519;45.408;10.962;2023-02-12T01:13:34;102357.53;;;4.79;57.56
45813;BME280;31519;45.408;10.962;2023-02-12T01:16:11;102350.88;;;4.95;57.06
45813;BME280;31519;45.408;10.962;2023-02-12T01:18:41;102353.50;;;4.58;57.86
45813;BME280;31519;45.408;10.962;2023-02-12T01:21:15;102347.03;;;4.54;57.85
45813;BME280;31519;45.408;10.962;2023-02-12T01:23:45;102348.13;;;4.46;58.32
45813;BME280;31519;45.408;10.962;2023-02-12T01:26:15;102350.22;;;4.63;58.38
45813;BME280;31519;45.408;10.962;2023-02-12T01:28:47;102345.69;;;4.45;58.59
45813;BME280;31519;45.408;10.962;2023-02-12T01:31:19;102344.69;;;4.46;58.44
45813;BME280;31519;45.408;10.962;2023-02-12T01:33:52;102339.84;;;4.43;58.99
45813;BME280;31519;45.408;10.962;2023-02-12T01:36:21;102328.34;;;4.56;58.93
45813;BME280;31519;45.408;10.962;2023-02-12T01:38:50;102323.16;;;4.49;58.57
45813;BME280;31519;45.408;10.962;2023-02-12T01:41:22;102319.41;;;4.57;58.66
45813;BME280;31519;45.408;10.962;2023-02-12T01:44:29;102322.41;;;4.60;58.58
45813;BME280;31519;45.408;10.962;2023-02-12T01:47:03;102323.38;;;4.66;58.11
45813;BME280;31519;45.408;10.962;2023-02-12T01:52:04;102310.97;;;4.48;58.39
45813;BME280;31519;45.408;10.962;2023-02-12T01:54:33;102313.31;;;4.38;58.76
45813;BME280;31519;45.408;10.962;2023-02-12T01:57:04;102311.19;;;4.46;58.92
45813;BME280;31519;45.408;10.962;2023-02-12T01:59:35;102310.84;;;4.61;57.79
45813;BME280;31519;45.408;10.962;2023-02-12T02:02:04;102313.75;;;4.35;58.51
45813;BME280;31519;45.408;10.962;2023-02-12T02:04:45;102307.66;;;4.34;58.99
45813;BME280;31519;45.408;10.962;2023-02-12T02:07:15;102304.94;;;4.41;58.42
45813;BME280;31519;45.408;10.962;2023-02-12T02:09:43;102319.25;;;4.33;58.56
45813;BME280;31519;45.408;10.962;2023-02-12T02:12:11;102326.56;;;4.50;58.37
45813;BME280;31519;45.408;10.962;2023-02-12T02:14:59;102315.44;;;4.29;59.10
45813;BME280;31519;45.408;10.962;2023-02-12T02:22:57;102304.50;;;4.26;58.83
45813;BME280;31519;45.408;10.962;2023-02-12T02:31:35;102291.22;;;4.32;58.54
45813;BME280;31519;45.408;10.962;2023-02-12T02:34:31;102292.38;;;4.18;58.99
45813;BME280;31519;45.408;10.962;2023-02-12T02:37:13;102291.66;;;4.11;59.32
45813;BME280;31519;45.408;10.962;2023-02-12T02:39:55;102278.19;;;4.19;58.47
45813;BME280;31519;45.408;10.962;2023-02-12T02:45:44;102265.84;;;4.13;59.18
45813;BME280;31519;45.408;10.962;2023-02-12T02:48:37;102264.94;;;4.26;59.14
45813;BME280;31519;45.408;10.962;2023-02-12T02:51:11;102266.94;;;4.30;58.98
45813;BME280;31519;45.408;10.962;2023-02-12T02:53:45;102262.41;;;4.13;59.31
45813;BME280;31519;45.408;10.962;2023-02-12T02:56:17;102263.03;;;4.33;58.43
45813;BME280;31519;45.408;10.962;2023-02-12T02:58:56;102259.28;;;4.22;58.88
45813;BME280;31519;45.408;10.962;2023-02-12T03:01:39;102263.97;;;4.20;58.48
45813;BME280;31519;45.408;10.962;2023-02-12T03:04:41;102258.53;;;4.15;58.65
45813;BME280;31519;45.408;10.962;2023-02-12T03:07:20;102254.13;;;4.09;58.20
45813;BME280;31519;45.408;10.962;2023-02-12T03:10:19;102252.38;;;4.03;58.80
45813;BME280;31519;45.408;10.962;2023-02-12T03:12:54;102257.75;;;4.15;58.79
45813;BME280;31519;45.408;10.962;2023-02-12T03:15:38;102250.13;;;4.25;58.67
45813;BME280;31519;45.408;10.962;2023-02-12T03:18:18;102257.69;;;4.58;57.72
45813;BME280;31519;45.408;10.962;2023-02-12T03:20:52;102263.25;;;4.31;57.89
45813;BME280;31519;45.408;10.962;2023-02-12T03:23:25;102250.72;;;4.27;58.25
45813;BME280;31519;45.408;10.962;2023-02-12T03:26:06;102248.44;;;4.12;59.42
45813;BME280;31519;45.408;10.962;2023-02-12T03:28:37;102242.56;;;4.10;59.17
45813;BME280;31519;45.408;10.962;2023-02-12T03:31:33;102242.28;;;4.18;59.39
45813;BME280;31519;45.408;10.962;2023-02-12T03:37:09;102235.69;;;4.27;59.12
45813;BME280;31519;45.408;10.962;2023-02-12T03:50:35;102239.13;;;4.10;59.91
45813;BME280;31519;45.408;10.962;2023-02-12T03:53:05;102235.69;;;4.09;59.50
45813;BME280;31519;45.408;10.962;2023-02-12T03:55:35;102250.16;;;4.00;60.13
45813;BME280;31519;45.408;10.962;2023-02-12T03:58:09;102253.66;;;3.76;61.07
45813;BME280;31519;45.408;10.962;2023-02-12T04:00:39;102257.00;;;3.83;61.04
45813;BME280;31519;45.408;10.962;2023-02-12T04:03:08;102262.69;;;4.05;60.84
45813;BME280;31519;45.408;10.962;2023-02-12T04:05:36;102266.66;;;4.14;60.59
45813;BME280;31519;45.408;10.962;2023-02-12T04:08:07;102270.41;;;4.06;60.24
45813;BME280;31519;45.408;10.962;2023-02-12T04:14:01;102253.41;;;3.52;61.59
45813;BME280;31519;45.408;10.962;2023-02-12T04:19:06;102267.13;;;3.61;61.22
45813;BME280;31519;45.408;10.962;2023-02-12T04:27:17;102249.09;;;3.58;61.18
45813;BME280;31519;45.408;10.962;2023-02-12T04:30:18;102247.16;;;3.47;61.89
45813;BME280;31519;45.408;10.962;2023-02-12T04:32:53;102265.34;;;3.55;61.80
45813;BME280;31519;45.408;10.962;2023-02-12T04:35:31;102268.41;;;3.77;61.78
45813;BME280;31519;45.408;10.962;2023-02-12T04:38:11;102259.44;;;3.60;61.99
45813;BME280;31519;45.408;10.962;2023-02-12T04:40:43;102262.19;;;3.71;62.09
45813;BME280;31519;45.408;10.962;2023-02-12T04:43:11;102260.66;;;3.82;61.44
45813;BME280;31519;45.408;10.962;2023-02-12T04:45:39;102256.56;;;3.86;61.81
45813;BME280;31519;45.408;10.962;2023-02-12T04:48:07;102254.91;;;3.91;61.66
45813;BME280;31519;45.408;10.962;2023-02-12T04:50:41;102254.44;;;3.76;61.54
45813;BME280;31519;45.408;10.962;2023-02-12T04:53:10;102259.16;;;3.92;62.17
45813;BME280;31519;45.408;10.962;2023-02-12T04:55:38;102250.00;;;3.95;61.58
45813;BME280;31519;45.408;10.962;2023-02-12T04:58:06;102254.06;;;3.97;61.22
45813;BME280;31519;45.408;10.962;2023-02-12T05:00:34;102257.38;;;3.86;61.82
45813;BME280;31519;45.408;10.962;2023-02-12T05:03:02;102262.38;;;3.94;60.98
45813;BME280;31519;45.408;10.962;2023-02-12T05:05:31;102266.63;;;3.95;61.35
45813;BME280;31519;45.408;10.962;2023-02-12T05:07:59;102255.03;;;3.78;61.81
45813;BME280;31519;45.408;10.962;2023-02-12T05:10:27;102252.72;;;3.88;62.37
45813;BME280;31519;45.408;10.962;2023-02-12T05:12:55;102262.09;;;3.84;62.04
45813;BME280;31519;45.408;10.962;2023-02-12T05:15:24;102263.25;;;3.88;62.14
45813;BME280;31519;45.408;10.962;2023-02-12T05:17:51;102259.75;;;3.94;61.71
45813;BME280;31519;45.408;10.962;2023-02-12T05:20:20;102256.81;;;3.84;62.52
45813;BME280;31519;45.408;10.962;2023-02-12T05:22:51;102256.38;;;3.87;62.50
45813;BME280;31519;45.408;10.962;2023-02-12T05:25:20;102252.75;;;3.82;62.46
45813;BME280;31519;45.408;10.962;2023-02-12T05:27:48;102249.91;;;3.83;63.00
45813;BME280;31519;45.408;10.962;2023-02-12T05:30:16;102244.31;;;3.98;62.40
45813;BME280;31519;45.408;10.962;2023-02-12T05:32:44;102241.88;;;3.96;62.35
45813;BME280;31519;45.408;10.962;2023-02-12T05:35:13;102242.09;;;3.95;62.54
45813;BME280;31519;45.408;10.962;2023-02-12T05:37:41;102237.75;;;4.25;61.67
45813;BME280;31519;45.408;10.962;2023-02-12T05:40:09;102249.50;;;4.05;61.47
45813;BME280;31519;45.408;10.962;2023-02-12T05:42:37;102241.28;;;3.94;61.96
45813;BME280;31519;45.408;10.962;2023-02-12T05:45:06;102236.75;;;3.83;62.12
45813;BME280;31519;45.408;10.962;2023-02-12T05:47:34;102239.94;;;3.85;62.65
45813;BME280;31519;45.408;10.962;2023-02-12T05:50:02;102246.38;;;3.71;62.70
45813;BME280;31519;45.408;10.962;2023-02-12T05:52:30;102249.44;;;3.93;62.44
45813;BME280;31519;45.408;10.962;2023-02-12T05:54:58;102242.59;;;3.85;62.89
45813;BME280;31519;45.408;10.962;2023-02-12T05:57:26;102256.16;;;3.89;62.05
45813;BME280;31519;45.408;10.962;2023-02-12T05:59:55;102262.63;;;3.93;62.62
45813;BME280;31519;45.408;10.962;2023-02-12T06:02:23;102262.19;;;3.71;63.07
45813;BME280;31519;45.408;10.962;2023-02-12T06:04:51;102262.59;;;3.68;62.56
45813;BME280;31519;45.408;10.962;2023-02-12T06:07:19;102254.44;;;3.76;62.82
45813;BME280;31519;45.408;10.962;2023-02-12T06:09:47;102259.84;;;3.81;62.37
45813;BME280;31519;45.408;10.962;2023-02-12T06:12:15;102270.03;;;3.78;63.00
45813;BME280;31519;45.408;10.962;2023-02-12T06:14:43;102281.72;;;3.88;62.96
45813;BME280;31519;45.408;10.962;2023-02-12T06:17:11;102282.00;;;3.80;63.04
45813;BME280;31519;45.408;10.962;2023-02-12T06:19:40;102292.91;;;3.84;62.36
45813;BME280;31519;45.408;10.962;2023-02-12T06:22:08;102296.59;;;3.76;62.86
45813;BME280;31519;45.408;10.962;2023-02-12T06:24:36;102305.94;;;3.72;62.80
45813;BME280;31519;45.408;10.962;2023-02-12T06:27:04;102300.44;;;3.80;63.08
45813;BME280;31519;45.408;10.962;2023-02-12T06:29:32;102298.00;;;3.79;62.99
45813;BME280;31519;45.408;10.962;2023-02-12T06:32:00;102303.78;;;3.94;62.93
45813;BME280;31519;45.408;10.962;2023-02-12T06:34:28;102307.31;;;3.81;63.83
45813;BME280;31519;45.408;10.962;2023-02-12T06:36:56;102307.13;;;3.76;64.07
45813;BME280;31519;45.408;10.962;2023-02-12T06:39:24;102324.22;;;3.67;64.31
45813;BME280;31519;45.408;10.962;2023-02-12T06:41:52;102319.69;;;4.06;63.35
45813;BME280;31519;45.408;10.962;2023-02-12T06:44:21;102324.53;;;3.84;64.56
45813;BME280;31519;45.408;10.962;2023-02-12T06:46:49;102326.00;;;3.80;64.55
45813;BME280;31519;45.408;10.962;2023-02-12T06:49:17;102325.75;;;3.81;64.60
45813;BME280;31519;45.408;10.962;2023-02-12T06:51:45;102334.09;;;3.78;64.36
45813;BME280;31519;45.408;10.962;2023-02-12T06:54:16;102338.28;;;3.86;64.92
45813;BME280;31519;45.408;10.962;2023-02-12T06:56:44;102338.03;;;4.19;63.78
45813;BME280;31519;45.408;10.962;2023-02-12T06:59:15;102338.88;;;4.13;63.89
45813;BME280;31519;45.408;10.962;2023-02-12T07:01:43;102331.91;;;4.00;64.04
45813;BME280;31519;45.408;10.962;2023-02-12T07:04:11;102325.41;;;4.03;64.39
45813;BME280;31519;45.408;10.962;2023-02-12T07:06:39;102326.50;;;4.13;63.66
45813;BME280;31519;45.408;10.962;2023-02-12T07:09:08;102323.53;;;4.28;63.24
45813;BME280;31519;45.408;10.962;2023-02-12T07:11:36;102326.28;;;4.39;63.31
45813;BME280;31519;45.408;10.962;2023-02-12T07:14:06;102330.09;;;4.43;62.77
45813;BME280;31519;45.408;10.962;2023-02-12T07:16:34;102337.63;;;4.40;63.70
45813;BME280;31519;45.408;10.962;2023-02-12T07:19:02;102352.31;;;4.54;63.49
45813;BME280;31519;45.408;10.962;2023-02-12T07:21:30;102360.47;;;4.71;63.04
45813;BME280;31519;45.408;10.962;2023-02-12T07:23:59;102360.34;;;4.84;61.62
45813;BME280;31519;45.408;10.962;2023-02-12T07:26:27;102359.72;;;4.82;62.04
45813;BME280;31519;45.408;10.962;2023-02-12T07:28:56;102353.34;;;5.26;61.00
45813;BME280;31519;45.408;10.962;2023-02-12T07:31:25;102359.66;;;5.07;60.63
45813;BME280;31519;45.408;10.962;2023-02-12T07:33:55;102370.91;;;5.32;59.77
45813;BME280;31519;45.408;10.962;2023-02-12T07:36:25;102374.47;;;5.56;59.02
45813;BME280;31519;45.408;10.962;2023-02-12T07:38:55;102384.03;;;5.57;58.97
45813;BME280;31519;45.408;10.962;2023-02-12T07:41:26;102388.66;;;5.43;59.08
45813;BME280;31519;45.408;10.962;2023-02-12T07:44:00;102387.06;;;5.42;58.94
45813;BME280;31519;45.408;10.962;2023-02-12T07:46:33;102382.91;;;6.06;57.78
45813;BME280;31519;45.408;10.962;2023-02-12T07:49:03;102381.78;;;6.13;56.77
45813;BME280;31519;45.408;10.962;2023-02-12T07:51:33;102375.69;;;6.24;56.67
45813;BME280;31519;45.408;10.962;2023-02-12T07:54:03;102380.19;;;6.47;56.18
45813;BME280;31519;45.408;10.962;2023-02-12T07:56:33;102378.00;;;6.67;55.65
45813;BME280;31519;45.408;10.962;2023-02-12T07:59:07;102384.88;;;7.03;54.92
45813;BME280;31519;45.408;10.962;2023-02-12T08:01:39;102395.41;;;7.27;54.36
45813;BME280;31519;45.408;10.962;2023-02-12T08:04:12;102396.94;;;7.11;54.25
45813;BME280;31519;45.408;10.962;2023-02-12T08:06:43;102391.94;;;7.26;53.44
45813;BME280;31519;45.408;10.962;2023-02-12T08:09:15;102384.84;;;7.43;52.23
45813;BME280;31519;45.408;10.962;2023-02-12T08:11:43;102395.44;;;7.43;51.85
45813;BME280;31519;45.408;10.962;2023-02-12T08:14:15;102396.69;;;7.52;52.05
45813;BME280;31519;45.408;10.962;2023-02-12T08:16:44;102399.72;;;7.73;51.77
45813;BME280;31519;45.408;10.962;2023-02-12T08:19:13;102398.47;;;8.25;50.49
45813;BME280;31519;45.408;10.962;2023-02-12T08:21:52;102423.09;;;8.21;49.60
45813;BME280;31519;45.408;10.962;2023-02-12T08:24:21;102419.69;;;8.75;48.88
45813;BME280;31519;45.408;10.962;2023-02-12T08:26:50;102425.22;;;8.90;48.42
45813;BME280;31519;45.408;10.962;2023-02-12T08:29:29;102429.06;;;9.21;48.09
45813;BME280;31519;45.408;10.962;2023-02-12T08:32:02;102428.03;;;9.44;46.95
45813;BME280;31519;45.408;10.962;2023-02-12T08:34:33;102435.84;;;9.29;47.48
45813;BME280;31519;45.408;10.962;2023-02-12T08:37:04;102426.44;;;9.43;46.82
45813;BME280;31519;45.408;10.962;2023-02-12T08:39:32;102436.50;;;9.41;48.17
45813;BME280;31519;45.408;10.962;2023-02-12T08:42:00;102437.38;;;9.47;48.80
45813;BME280;31519;45.408;10.962;2023-02-12T08:44:29;102435.53;;;9.74;48.74
45813;BME280;31519;45.408;10.962;2023-02-12T08:46:57;102439.88;;;9.80;48.50
45813;BME280;31519;45.408;10.962;2023-02-12T08:49:27;102434.72;;;10.00;47.56
45813;BME280;31519;45.408;10.962;2023-02-12T08:51:57;102430.31;;;9.84;46.76
45813;BME280;31519;45.408;10.962;2023-02-12T08:54:27;102425.88;;;9.90;47.08
45813;BME280;31519;45.408;10.962;2023-02-12T08:56:57;102425.09;;;9.94;46.50
45813;BME280;31519;45.408;10.962;2023-02-12T08:59:26;102427.16;;;9.87;46.03
45813;BME280;31519;45.408;10.962;2023-02-12T09:01:54;102425.22;;;10.09;45.58
45813;BME280;31519;45.408;10.962;2023-02-12T09:04:24;102431.38;;;10.42;45.48
45813;BME280;31519;45.408;10.962;2023-02-12T09:06:53;102420.50;;;10.90;45.22
45813;BME280;31519;45.408;10.962;2023-02-12T09:09:21;102415.59;;;10.77;45.66
45813;BME280;31519;45.408;10.962;2023-02-12T09:11:49;102421.47;;;10.74;45.62
45813;BME280;31519;45.408;10.962;2023-02-12T09:14:18;102417.19;;;11.25;45.07
45813;BME280;31519;45.408;10.962;2023-02-12T09:16:52;102415.28;;;11.16;44.67
45813;BME280;31519;45.408;10.962;2023-02-12T09:19:20;102415.25;;;11.10;44.30
45813;BME280;31519;45.408;10.962;2023-02-12T09:21:52;102416.97;;;11.47;43.42
45813;BME280;31519;45.408;10.962;2023-02-12T09:24:26;102430.03;;;11.38;43.35
45813;BME280;31519;45.408;10.962;2023-02-12T09:26:55;102431.41;;;11.41;43.03
45813;BME280;31519;45.408;10.962;2023-02-12T09:29:24;102433.13;;;11.92;42.46
45813;BME280;31519;45.408;10.962;2023-02-12T09:31:52;102427.53;;;11.99;41.57
45813;BME280;31519;45.408;10.962;2023-02-12T09:34:20;102428.25;;;11.69;42.12
45813;BME280;31519;45.408;10.962;2023-02-12T09:36:48;102438.66;;;11.71;42.04
45813;BME280;31519;45.408;10.962;2023-02-12T09:39:16;102438.16;;;11.79;42.16
45813;BME280;31519;45.408;10.962;2023-02-12T09:52:29;102437.13;;;12.10;39.00
45813;BME280;31519;45.408;10.962;2023-02-12T09:54:58;102429.38;;;11.93;39.09
45813;BME280;31519;45.408;10.962;2023-02-12T09:57:30;102432.31;;;12.48;37.99
45813;BME280;31519;45.408;10.962;2023-02-12T10:00:30;102427.19;;;12.76;37.89
45813;BME280;31519;45.408;10.962;2023-02-12T10:03:02;102432.72;;;13.69;34.88
45813;BME280;31519;45.408;10.962;2023-02-12T10:05:40;102439.44;;;13.62;34.18
45813;BME280;31519;45.408;10.962;2023-02-12T10:08:25;102445.31;;;13.05;34.53
45813;BME280;31519;45.408;10.962;2023-02-12T10:11:19;102440.25;;;12.88;35.71
45813;BME280;31519;45.408;10.962;2023-02-12T10:27:39;102460.97;;;13.91;34.96
45813;BME280;31519;45.408;10.962;2023-02-12T10:30:44;102462.63;;;13.82;35.00
45813;BME280;31519;45.408;10.962;2023-02-12T10:33:27;102462.53;;;14.31;35.36
45813;BME280;31519;45.408;10.962;2023-02-12T10:38:53;102456.94;;;14.27;34.25
45813;BME280;31519;45.408;10.962;2023-02-12T10:41:23;102447.38;;;14.79;33.25
45813;BME280;31519;45.408;10.962;2023-02-12T10:43:54;102434.09;;;14.92;32.99
45813;BME280;31519;45.408;10.962;2023-02-12T10:46:22;102436.25;;;15.14;31.49
45813;BME280;31519;45.408;10.962;2023-02-12T10:48:52;102441.94;;;14.60;31.92
45813;BME280;31519;45.408;10.962;2023-02-12T10:51:28;102440.38;;;14.25;32.70
45813;BME280;31519;45.408;10.962;2023-02-12T10:57:16;102436.66;;;16.01;30.74
45813;BME280;31519;45.408;10.962;2023-02-12T10:59:47;102435.34;;;16.17;30.29
45813;BME280;31519;45.408;10.962;2023-02-12T11:02:23;102435.06;;;16.65;29.56
45813;BME280;31519;45.408;10.962;2023-02-12T11:04:53;102437.78;;;16.46;29.39
45813;BME280;31519;45.408;10.962;2023-02-12T11:07:23;102434.91;;;16.56;28.86
45813;BME280;31519;45.408;10.962;2023-02-12T11:09:54;102435.31;;;16.50;28.48
45813;BME280;31519;45.408;10.962;2023-02-12T11:12:32;102439.09;;;16.95;28.43
45813;BME280;31519;45.408;10.962;2023-02-12T11:15:06;102443.72;;;17.80;27.34
45813;BME280;31519;45.408;10.962;2023-02-12T11:17:53;102442.56;;;16.95;28.83
45813;BME280;31519;45.408;10.962;2023-02-12T11:20:25;102439.44;;;17.29;29.26
45813;BME280;31519;45.408;10.962;2023-02-12T11:23:00;102440.88;;;17.13;28.18
45813;BME280;31519;45.408;10.962;2023-02-12T11:25:31;102438.00;;;16.04;29.17
45813;BME280;31519;45.408;10.962;2023-02-12T11:28:15;102437.28;;;16.30;28.58
45813;BME280;31519;45.408;10.962;2023-02-12T11:30:50;102437.19;;;16.68;28.55
45813;BME280;31519;45.408;10.962;2023-02-12T11:36:22;102443.84;;;16.84;28.40
45813;BME280;31519;45.408;10.962;2023-02-12T11:38:51;102434.84;;;17.29;27.92
45813;BME280;31519;45.408;10.962;2023-02-12T11:41:35;102445.88;;;18.36;27.19
45813;BME280;31519;45.408;10.962;2023-02-12T11:44:10;102451.75;;;18.38;27.16
45813;BME280;31519;45.408;10.962;2023-02-12T11:46:49;102455.75;;;17.60;27.53
45813;BME280;31519;45.408;10.962;2023-02-12T11:49:29;102460.25;;;18.23;27.68
45813;BME280;31519;45.408;10.962;2023-02-12T11:52:01;102452.63;;;17.80;26.82
45813;BME280;31519;45.408;10.962;2023-02-12T11:54:33;102452.44;;;16.08;28.91
45813;BME280;31519;45.408;10.962;2023-02-12T11:57:06;102445.28;;;16.17;29.07
45813;BME280;31519;45.408;10.962;2023-02-12T11:59:44;102453.53;;;16.99;28.78
45813;BME280;31519;45.408;10.962;2023-02-12T12:02:20;102450.63;;;17.36;28.60
45813;BME280;31519;45.408;10.962;2023-02-12T12:04:53;102448.81;;;17.59;29.13
45813;BME280;31519;45.408;10.962;2023-02-12T12:07:28;102442.81;;;17.35;29.12
45813;BME280;31519;45.408;10.962;2023-02-12T12:10:04;102443.47;;;17.04;29.71
45813;BME280;31519;45.408;10.962;2023-02-12T12:12:45;102452.06;;;18.58;26.83
45813;BME280;31519;45.408;10.962;2023-02-12T12:15:26;102435.38;;;18.34;27.17
45813;BME280;31519;45.408;10.962;2023-02-12T12:18:37;102437.28;;;18.34;27.97
45813;BME280;31519;45.408;10.962;2023-02-12T12:24:23;102436.63;;;19.98;25.10
45813;BME280;31519;45.408;10.962;2023-02-12T12:27:22;102437.81;;;19.06;26.39
45813;BME280;31519;45.408;10.962;2023-02-12T12:30:15;102427.25;;;19.70;25.40
45813;BME280;31519;45.408;10.962;2023-02-12T12:32:48;102417.09;;;18.23;26.63
45813;BME280;31519;45.408;10.962;2023-02-12T12:35:24;102419.06;;;18.39;26.91
45813;BME280;31519;45.408;10.962;2023-02-12T12:38:32;102420.81;;;18.13;27.57
45813;BME280;31519;45.408;10.962;2023-02-12T12:41:23;102413.44;;;18.97;26.64
45813;BME280;31519;45.408;10.962;2023-02-12T12:46:59;102411.00;;;19.96;26.16
45813;BME280;31519;45.408;10.962;2023-02-12T12:49:41;102413.13;;;20.45;25.92
45813;BME280;31519;45.408;10.962;2023-02-12T13:03:10;102415.84;;;17.84;29.32
45813;BME280;31519;45.408;10.962;2023-02-12T13:11:38;102419.00;;;18.53;29.38
45813;BME280;31519;45.408;10.962;2023-02-12T13:16:46;102421.47;;;19.20;27.78
45813;BME280;31519;45.408;10.962;2023-02-12T13:22:05;102405.63;;;19.70;26.33
45813;BME280;31519;45.408;10.962;2023-02-12T13:24:44;102414.00;;;20.11;25.66
45813;BME280;31519;45.408;10.962;2023-02-12T13:27:21;102404.47;;;19.97;24.44
45813;BME280;31519;45.408;10.962;2023-02-12T13:30:04;102402.78;;;20.76;23.84
45813;BME280;31519;45.408;10.962;2023-02-12T13:32:36;102399.28;;;21.35;22.19
45813;BME280;31519;45.408;10.962;2023-02-12T13:35:18;102407.09;;;20.77;21.24
45813;BME280;31519;45.408;10.962;2023-02-12T13:37:51;102409.09;;;19.62;21.16
45813;BME280;31519;45.408;10.962;2023-02-12T13:40:26;102404.31;;;19.76;21.47
45813;BME280;31519;45.408;10.962;2023-02-12T13:43:05;102406.84;;;19.89;21.06
45813;BME280;31519;45.408;10.962;2023-02-12T13:45:47;102399.06;;;19.97;20.73
45813;BME280;31519;45.408;10.962;2023-02-12T13:48:28;102410.41;;;20.83;19.78
45813;BME280;31519;45.408;10.962;2023-02-12T13:53:50;102396.16;;;20.65;19.54
45813;BME280;31519;45.408;10.962;2023-02-12T13:56:28;102406.66;;;20.67;19.09
45813;BME280;31519;45.408;10.962;2023-02-12T13:59:00;102399.94;;;20.44;18.88
45813;BME280;31519;45.408;10.962;2023-02-12T14:01:42;102403.53;;;20.86;18.68
45813;BME280;31519;45.408;10.962;2023-02-12T14:07:07;102412.81;;;21.14;17.92
45813;BME280;31519;45.408;10.962;2023-02-12T14:09:46;102412.31;;;20.83;16.84
45813;BME280;31519;45.408;10.962;2023-02-12T14:12:29;102410.97;;;21.47;16.41
45813;BME280;31519;45.408;10.962;2023-02-12T14:18:36;102416.00;;;21.37;17.30
45813;BME280;31519;45.408;10.962;2023-02-12T14:23:40;102415.34;;;21.40;17.98
45813;BME280;31519;45.408;10.962;2023-02-12T14:26:15;102428.59;;;20.83;18.67
45813;BME280;31519;45.408;10.962;2023-02-12T14:28:51;102421.63;;;20.73;19.38
45813;BME280;31519;45.408;10.962;2023-02-12T14:31:32;102418.50;;;20.54;19.09
45813;BME280;31519;45.408;10.962;2023-02-12T14:41:48;102430.28;;;21.25;19.56
45813;BME280;31519;45.408;10.962;2023-02-12T14:49:37;102426.38;;;21.55;19.67
45813;BME280;31519;45.408;10.962;2023-02-12T14:52:24;102442.53;;;21.52;19.99
45813;BME280;31519;45.408;10.962;2023-02-12T14:55:00;102443.03;;;21.87;19.43
45813;BME280;31519;45.408;10.962;2023-02-12T14:57:35;102452.50;;;21.81;19.73
45813;BME280;31519;45.408;10.962;2023-02-12T15:00:34;102443.06;;;21.66;20.00
45813;BME280;31519;45.408;10.962;2023-02-12T15:03:50;102452.78;;;21.46;20.38
45813;BME280;31519;45.408;10.962;2023-02-12T15:06:21;102463.44;;;21.72;20.37
45813;BME280;31519;45.408;10.962;2023-02-12T15:09:00;102450.91;;;22.33;19.98
45813;BME280;31519;45.408;10.962;2023-02-12T15:14:27;102456.38;;;23.55;19.52
45813;BME280;31519;45.408;10.962;2023-02-12T15:17:07;102462.28;;;23.20;19.05
45813;BME280;31519;45.408;10.962;2023-02-12T15:19:41;102456.41;;;23.98;19.20
45813;BME280;31519;45.408;10.962;2023-02-12T15:22:23;102439.13;;;24.06;18.65
45813;BME280;31519;45.408;10.962;2023-02-12T15:24:53;102453.50;;;25.48;18.10
45813;BME280;31519;45.408;10.962;2023-02-12T15:27:21;102460.38;;;25.42;17.67
45813;BME280;31519;45.408;10.962;2023-02-12T15:29:52;102452.16;;;25.77;17.61